Time;durP1;ratioP1;P1;durP2;ratioP2;P2;SDS_P1;SDS_P2;PMS_P1;PMS_P2;Temp;Humidity;BMP_temperature;BMP_pressure;BME280_temperature;BME280_humidity;BME280_pressure;Samples;Min_cycle;Max_cycle;Signal;HPM_P1;HPM_P2
2022/01/10 00:00:38;;;;;;;;;;;;;;;2.87;83.45;97341.72;1634404;87;26820;-87
2022/01/10 00:03:06;;;;;;;;;;;;;;;2.83;83.47;97344.11;1633718;86;20366;-83
2022/01/10 00:05:39;;;;;;;;;;;;;;;2.82;83.49;97340.70;1635748;86;20230;-88
2022/01/10 00:08:05;;;;;;;;;;;;;;;2.97;83.69;97339.44;1632766;87;24794;-82
2022/01/10 00:10:32;;;;;;;;;;;;;;;3.09;83.82;97347.79;1634286;86;22194;-86
2022/01/10 00:12:58;;;;;;;;;;;;;;;3.16;83.92;97350.41;1632303;87;25605;-87
2022/01/10 00:15:24;;;;;;;;;;;;;;;3.12;83.95;97360.53;1634140;86;24531;-87
2022/01/10 00:17:51;;;;;;;;;;;;;;;3.21;84.04;97360.02;1633969;87;20380;-87
2022/01/10 00:20:17;;;;;;;;;;;;;;;3.20;84.04;97364.36;1634750;86;24605;-83
2022/01/10 00:22:46;;;;;;;;;;;;;;;3.22;84.07;97364.24;1636824;86;22062;-82
2022/01/10 00:25:13;;;;;;;;;;;;;;;3.16;84.07;97364.63;1635132;85;26086;-83
2022/01/10 00:27:40;;;;;;;;;;;;;;;3.00;83.95;97365.93;1633791;87;25099;-87
2022/01/10 00:30:07;;;;;;;;;;;;;;;2.86;83.83;97363.30;1634385;86;20219;-87
2022/01/10 00:32:33;;;;;;;;;;;;;;;2.75;83.76;97363.91;1634063;87;24828;-85
2022/01/10 00:34:59;;;;;;;;;;;;;;;2.87;83.84;97372.27;1635930;85;21964;-84
2022/01/10 00:37:25;;;;;;;;;;;;;;;2.93;83.92;97376.27;1634284;86;26038;-87
2022/01/10 00:39:51;;;;;;;;;;;;;;;2.89;83.87;97373.00;1634203;86;20257;-87
2022/01/10 00:42:18;;;;;;;;;;;;;;;2.93;83.88;97374.97;1635906;86;20524;-87
2022/01/10 00:44:50;;;;;;;;;;;;;;;2.95;83.91;97380.86;1632110;87;24840;-87
2022/01/10 00:47:18;;;;;;;;;;;;;;;2.91;83.93;97380.21;1634181;86;22898;-87
2022/01/10 00:49:45;;;;;;;;;;;;;;;2.88;83.97;97390.73;1632559;86;25919;-88
2022/01/10 00:52:11;;;;;;;;;;;;;;;2.87;84.02;97394.23;1634148;87;24513;-90
2022/01/10 00:54:38;;;;;;;;;;;;;;;2.77;83.97;97399.53;1633892;87;20324;-88
2022/01/10 00:57:04;;;;;;;;;;;;;;;2.60;83.85;97404.79;1634448;85;24810;-88
2022/01/10 00:59:30;;;;;;;;;;;;;;;2.45;83.77;97410.34;1633721;86;22074;-87
2022/01/10 01:01:57;;;;;;;;;;;;;;;2.35;83.69;97407.84;1633215;87;21085;-88
2022/01/10 01:04:23;;;;;;;;;;;;;;;2.25;83.66;97414.41;1634441;86;24500;-83
2022/01/10 01:06:49;;;;;;;;;;;;;;;2.15;83.60;97425.30;1634175;85;20713;-86
2022/01/10 01:09:26;;;;;;;;;;;;;;;2.04;83.54;97426.70;1634218;86;24817;-87
2022/01/10 01:12:12;;;;;;;;;;;;;;;1.97;83.55;97424.05;1633165;87;22034;-83
2022/01/10 01:14:52;;;;;;;;;;;;;;;1.98;83.64;97421.86;1633044;86;25972;-83
2022/01/10 01:17:33;;;;;;;;;;;;;;;2.04;83.81;97427.99;1634273;86;24436;-83
2022/01/10 01:25:12;;;;;;;;;;;;;;;1.93;84.16;97428.16;1628360;87;22737;-83
2022/01/10 01:27:40;;;;;;;;;;;;;;;1.80;84.17;97429.72;1617767;86;26203;-83
2022/01/10 01:30:07;;;;;;;;;;;;;;;1.69;84.19;97428.98;1612777;87;24708;-87
2022/01/10 01:32:48;;;;;;;;;;;;;;;1.65;84.26;97436.02;1614839;87;20480;-87
2022/01/10 01:35:23;;;;;;;;;;;;;;;1.55;84.32;97432.23;1613761;87;24750;-89
2022/01/10 01:37:46;;;;;;;;;;;;;;;1.44;84.39;97431.09;1605356;88;22258;-82
2022/01/10 01:40:12;;;;;;;;;;;;;;;1.38;84.51;97428.81;1626986;86;26217;-82
2022/01/10 01:42:41;;;;;;;;;;;;;;;1.39;84.70;97433.06;1629376;86;24427;-88
2022/01/10 01:45:08;;;;;;;;;;;;;;;1.37;84.91;97435.70;1627881;86;20159;-89
2022/01/10 01:47:34;;;;;;;;;;;;;;;1.38;85.15;97443.83;1627353;88;24676;-82
2022/01/10 01:50:01;;;;;;;;;;;;;;;1.52;85.52;97445.28;1627039;86;21945;-82
2022/01/10 01:52:27;;;;;;;;;;;;;;;1.57;85.80;97445.05;1631193;86;26000;-88
2022/01/10 01:54:53;;;;;;;;;;;;;;;1.50;86.00;97452.70;1627149;87;24535;-83
2022/01/10 01:57:26;;;;;;;;;;;;;;;1.42;86.19;97453.55;1625650;87;20295;-89
2022/01/10 01:59:52;;;;;;;;;;;;;;;1.35;86.35;97454.75;1627743;88;24808;-83
2022/01/10 02:02:19;;;;;;;;;;;;;;;1.29;86.51;97453.76;1627752;87;22051;-89
2022/01/10 02:04:45;;;;;;;;;;;;;;;1.24;86.68;97446.25;1628025;86;26225;-88
2022/01/10 02:07:11;;;;;;;;;;;;;;;1.26;86.92;97450.41;1627500;88;24498;-88
2022/01/10 02:09:37;;;;;;;;;;;;;;;1.32;87.16;97458.75;1625572;88;20309;-87
2022/01/10 02:12:04;;;;;;;;;;;;;;;1.35;87.42;97461.20;1629770;86;24761;-84
2022/01/10 02:14:30;;;;;;;;;;;;;;;1.37;87.68;97456.33;1627599;87;21937;-84
2022/01/10 02:16:56;;;;;;;;;;;;;;;1.39;87.93;97459.67;1627415;86;26077;-83
2022/01/10 02:19:23;;;;;;;;;;;;;;;1.41;88.16;97466.89;1627537;88;24550;-84
2022/01/10 02:21:49;;;;;;;;;;;;;;;1.44;88.39;97468.02;1629817;86;20163;-83
2022/01/10 02:24:16;;;;;;;;;;;;;;;1.47;88.63;97470.91;1629044;86;24717;-88
2022/01/10 02:26:44;;;;;;;;;;;;;;;1.51;88.86;97475.00;1627423;86;22097;-88
2022/01/10 02:29:10;;;;;;;;;;;;;;;1.56;89.10;97475.16;1649016;85;25671;-83
2022/01/10 02:31:40;;;;;;;;;;;;;;;1.62;89.35;97474.86;1648360;85;24479;-87
2022/01/10 02:34:08;;;;;;;;;;;;;;;1.66;89.62;97475.08;1648764;86;20215;-88
2022/01/10 02:36:41;;;;;;;;;;;;;;;1.74;89.86;97477.74;1648457;86;24176;-88
2022/01/10 02:39:09;;;;;;;;;;;;;;;1.77;90.09;97486.59;1651019;85;22142;-87
2022/01/10 02:41:38;;;;;;;;;;;;;;;1.78;90.28;97479.25;1648391;85;26102;-83
2022/01/10 02:44:06;;;;;;;;;;;;;;;1.77;90.41;97478.41;1649812;85;24534;-84
2022/01/10 02:46:34;;;;;;;;;;;;;;;1.76;90.54;97483.19;1648487;85;20277;-84
2022/01/10 02:49:01;;;;;;;;;;;;;;;1.68;90.65;97482.30;1648945;85;25680;-88
2022/01/10 02:51:33;;;;;;;;;;;;;;;1.63;90.72;97487.30;1649500;86;22809;-88
2022/01/10 02:53:59;;;;;;;;;;;;;;;1.57;90.80;97486.31;1648389;86;26043;-83
2022/01/10 02:56:25;;;;;;;;;;;;;;;1.57;90.92;97486.31;1650781;85;20352;-82
2022/01/10 02:58:51;;;;;;;;;;;;;;;1.59;91.05;97493.05;1648058;85;20187;-87
2022/01/10 03:01:17;;;;;;;;;;;;;;;1.62;91.19;97491.62;1648295;87;24774;-87
2022/01/10 03:03:43;;;;;;;;;;;;;;;1.65;91.36;97497.90;1649636;85;21947;-82
2022/01/10 03:06:11;;;;;;;;;;;;;;;1.68;91.55;97495.19;1647466;85;25999;-82
2022/01/10 03:08:37;;;;;;;;;;;;;;;1.73;91.71;97509.14;1648541;87;24431;-82
2022/01/10 03:11:03;;;;;;;;;;;;;;;1.75;91.86;97511.63;1648477;85;20215;-81
2022/01/10 03:13:29;;;;;;;;;;;;;;;1.79;92.04;97519.16;1636123;86;24734;-83
2022/01/10 03:15:55;;;;;;;;;;;;;;;1.89;92.27;97515.66;1599259;87;22046;-82
2022/01/10 03:18:21;;;;;;;;;;;;;;;1.96;92.53;97519.16;1648869;85;21317;-83
2022/01/10 03:20:47;;;;;;;;;;;;;;;1.96;92.68;97521.73;1647503;87;24409;-82
2022/01/10 03:23:13;;;;;;;;;;;;;;;1.96;92.80;97528.19;1649223;85;20516;-88
2022/01/10 03:25:39;;;;;;;;;;;;;;;2.05;93.01;97526.88;1648171;86;24744;-88
2022/01/10 03:28:06;;;;;;;;;;;;;;;2.28;93.31;97528.30;1641860;86;21038;-83
2022/01/10 03:30:35;;;;;;;;;;;;;;;2.44;93.59;97527.89;1636533;86;26015;-88
2022/01/10 03:33:03;;;;;;;;;;;;;;;2.39;93.67;97533.30;1623336;87;24667;-88
2022/01/10 03:35:33;;;;;;;;;;;;;;;2.32;93.69;97536.26;1623720;86;20301;-88
2022/01/10 03:38:02;;;;;;;;;;;;;;;2.44;93.84;97533.89;1634305;86;24883;-88
2022/01/10 03:40:28;;;;;;;;;;;;;;;2.58;93.99;97539.61;1634027;87;21897;-88
2022/01/10 03:42:54;;;;;;;;;;;;;;;2.63;94.08;97535.49;1634698;86;26163;-88
2022/01/10 03:45:20;;;;;;;;;;;;;;;2.58;94.11;97540.06;1634164;86;24443;-89
2022/01/10 03:47:46;;;;;;;;;;;;;;;2.51;94.11;97540.84;1633485;88;20333;-83
2022/01/10 03:50:12;;;;;;;;;;;;;;;2.44;94.10;97543.38;1636433;85;24724;-87
2022/01/10 03:52:38;;;;;;;;;;;;;;;2.42;94.12;97542.61;1635992;85;22022;-83
2022/01/10 03:55:13;;;;;;;;;;;;;;;2.40;94.12;97548.33;1625789;87;26089;-83
2022/01/10 03:57:39;;;;;;;;;;;;;;;2.40;94.21;97550.43;1637038;86;24409;-88
2022/01/10 04:00:07;;;;;;;;;;;;;;;2.38;94.28;97549.69;1635914;86;20489;-87
2022/01/10 04:02:34;;;;;;;;;;;;;;;2.34;94.27;97544.31;1634533;86;24772;-82
2022/01/10 04:05:00;;;;;;;;;;;;;;;2.33;94.30;97552.13;1637346;86;21982;-83
2022/01/10 04:07:28;;;;;;;;;;;;;;;2.30;94.29;97557.43;1634125;86;26055;-84
2022/01/10 04:09:54;;;;;;;;;;;;;;;2.24;94.28;97552.58;1631874;86;24309;-83
2022/01/10 04:12:21;;;;;;;;;;;;;;;2.19;94.26;97553.27;1631193;87;20307;-86
2022/01/10 04:14:47;;;;;;;;;;;;;;;2.13;94.20;97560.86;1633988;87;24839;-87
2022/01/10 04:17:13;;;;;;;;;;;;;;;2.07;94.16;97562.00;1633970;86;22055;-87
2022/01/10 04:19:39;;;;;;;;;;;;;;;1.98;94.10;97556.47;1636661;86;26048;-83
2022/01/10 04:22:06;;;;;;;;;;;;;;;1.93;94.09;97557.16;1635783;85;24417;-83
2022/01/10 04:24:32;;;;;;;;;;;;;;;1.91;94.12;97561.58;1634337;87;20229;-89
2022/01/10 04:26:58;;;;;;;;;;;;;;;1.88;94.18;97563.00;1636143;86;24767;-87
2022/01/10 04:29:24;;;;;;;;;;;;;;;1.86;94.24;97566.09;1647160;86;21978;-87
2022/01/10 04:31:50;;;;;;;;;;;;;;;1.84;94.28;97568.77;1647799;85;26016;-83
2022/01/10 04:34:16;;;;;;;;;;;;;;;1.82;94.37;97567.16;1648937;85;24515;-83
2022/01/10 04:36:43;;;;;;;;;;;;;;;1.82;94.45;97573.61;1648470;85;20228;-82
2022/01/10 04:39:09;;;;;;;;;;;;;;;1.81;94.56;97581.80;1648524;85;24949;-83
2022/01/10 04:41:37;;;;;;;;;;;;;;;1.79;94.65;97578.48;1648094;87;22148;-83
2022/01/10 04:44:04;;;;;;;;;;;;;;;1.82;94.76;97592.95;1649459;85;26108;-82
2022/01/10 04:46:30;;;;;;;;;;;;;;;1.83;94.90;97584.31;1629326;87;25006;-87
2022/01/10 04:48:56;;;;;;;;;;;;;;;1.86;95.05;97590.60;1648315;87;20262;-88
2022/01/10 04:51:22;;;;;;;;;;;;;;;1.87;95.17;97598.27;1648664;87;24749;-89
2022/01/10 04:53:50;;;;;;;;;;;;;;;1.86;95.27;97600.47;1648531;87;20828;-88
2022/01/10 04:56:17;;;;;;;;;;;;;;;1.83;95.36;97599.80;1647312;87;26102;-84
2022/01/10 04:58:45;;;;;;;;;;;;;;;1.77;95.42;97608.66;1647853;87;24506;-83
2022/01/10 05:01:12;;;;;;;;;;;;;;;1.75;95.50;97613.05;1646971;87;20235;-82
2022/01/10 05:03:47;;;;;;;;;;;;;;;1.75;95.56;97617.36;1649557;85;24770;-88
2022/01/10 05:06:14;;;;;;;;;;;;;;;1.73;95.62;97621.33;1647164;87;22011;-88
2022/01/10 05:08:40;;;;;;;;;;;;;;;1.62;95.66;97621.84;1645088;87;25946;-88
2022/01/10 05:11:06;;;;;;;;;;;;;;;1.54;95.66;97626.50;1647889;86;24434;-88
2022/01/10 05:13:33;;;;;;;;;;;;;;;1.48;95.68;97633.23;1646273;87;20239;-83
2022/01/10 05:16:02;;;;;;;;;;;;;;;1.43;95.74;97641.63;1648696;85;25685;-83
2022/01/10 05:18:31;;;;;;;;;;;;;;;1.38;95.77;97641.02;1649899;85;22035;-88
2022/01/10 05:20:57;;;;;;;;;;;;;;;1.29;95.81;97645.31;1648343;85;26116;-87
2022/01/10 05:23:23;;;;;;;;;;;;;;;1.20;95.85;97643.16;1646250;87;24411;-84
2022/01/10 05:25:49;;;;;;;;;;;;;;;1.18;95.93;97650.11;1648368;87;20289;-83
2022/01/10 05:28:17;;;;;;;;;;;;;;;1.15;96.03;97659.25;1644576;85;24839;-84
2022/01/10 05:30:43;;;;;;;;;;;;;;;1.11;96.14;97660.30;1631482;87;21976;-90
2022/01/10 05:33:09;;;;;;;;;;;;;;;1.02;96.24;97671.86;1632403;88;25968;-89
2022/01/10 05:35:39;;;;;;;;;;;;;;;1.01;96.36;97677.06;1631472;88;24510;-90
2022/01/10 05:38:05;;;;;;;;;;;;;;;0.99;96.51;97682.73;1630325;88;20539;-87
2022/01/10 05:40:31;;;;;;;;;;;;;;;0.98;96.66;97690.94;1632154;86;24846;-82
2022/01/10 05:42:57;;;;;;;;;;;;;;;0.96;96.87;97694.02;1632910;87;21948;-87
2022/01/10 05:45:24;;;;;;;;;;;;;;;0.93;97.03;97690.27;1632225;86;26034;-87
2022/01/10 05:47:50;;;;;;;;;;;;;;;0.93;97.21;97697.99;1632057;88;24443;-84
2022/01/10 05:50:19;;;;;;;;;;;;;;;0.94;97.39;97702.70;1632542;86;20221;-87
2022/01/10 05:52:46;;;;;;;;;;;;;;;0.94;97.58;97703.54;1634036;86;24918;-88
2022/01/10 05:55:12;;;;;;;;;;;;;;;0.94;97.78;97709.98;1632386;86;22080;-88
2022/01/10 05:57:38;;;;;;;;;;;;;;;0.94;97.96;97712.55;1631811;86;26042;-84
2022/01/10 06:00:05;;;;;;;;;;;;;;;0.91;98.13;97719.14;1632984;86;24657;-85
2022/01/10 06:02:32;;;;;;;;;;;;;;;0.90;98.28;97722.61;1633618;86;20228;-84
2022/01/10 06:05:05;;;;;;;;;;;;;;;0.86;98.42;97724.94;1611822;87;20306;-89
2022/01/10 06:07:27;;;;;;;;;;;;;;;0.83;98.55;97723.77;1630724;88;22006;-89
2022/01/10 06:09:53;;;;;;;;;;;;;;;0.75;98.63;97736.14;1631037;86;26044;-88
2022/01/10 06:12:19;;;;;;;;;;;;;;;0.71;98.73;97741.04;1614099;88;24476;-89
2022/01/10 06:14:45;;;;;;;;;;;;;;;0.70;98.87;97752.23;1630706;88;20795;-90
2022/01/10 06:17:12;;;;;;;;;;;;;;;0.68;99.00;97754.86;1612171;88;25752;-89
2022/01/10 06:19:39;;;;;;;;;;;;;;;0.67;99.15;97762.20;1634788;86;22028;-87
2022/01/10 06:22:05;;;;;;;;;;;;;;;0.66;99.30;97762.25;1632356;88;26006;-88
2022/01/10 06:24:31;;;;;;;;;;;;;;;0.67;99.45;97767.34;1632032;86;24527;-90
2022/01/10 06:27:01;;;;;;;;;;;;;;;0.70;99.63;97767.69;1631913;88;20372;-90
2022/01/10 06:29:27;;;;;;;;;;;;;;;0.71;99.80;97770.17;1635582;85;24743;-83
2022/01/10 06:31:54;;;;;;;;;;;;;;;0.73;99.97;97770.13;1630028;86;21969;-86
2022/01/10 06:34:20;;;;;;;;;;;;;;;0.77;100.00;97776.36;1601947;88;25979;-87
2022/01/10 06:36:46;;;;;;;;;;;;;;;0.84;100.00;97780.81;1629194;86;24485;-82
2022/01/10 06:39:12;;;;;;;;;;;;;;;0.89;100.00;97787.90;1631935;85;20555;-84
2022/01/10 06:41:38;;;;;;;;;;;;;;;0.92;100.00;97788.23;1634131;87;24903;-87
2022/01/10 06:44:04;;;;;;;;;;;;;;;0.98;100.00;97790.11;1634461;86;20796;-83
2022/01/10 06:46:30;;;;;;;;;;;;;;;1.04;100.00;97796.72;1632704;87;26053;-82
2022/01/10 06:48:56;;;;;;;;;;;;;;;1.09;100.00;97802.06;1633851;87;24509;-82
2022/01/10 06:51:22;;;;;;;;;;;;;;;1.09;100.00;97807.22;1634264;86;20297;-83
2022/01/10 06:53:48;;;;;;;;;;;;;;;1.08;100.00;97806.02;1635731;86;24803;-82
2022/01/10 06:56:14;;;;;;;;;;;;;;;1.08;100.00;97815.88;1632462;86;22021;-86
2022/01/10 06:58:41;;;;;;;;;;;;;;;1.11;100.00;97819.59;1634016;87;26571;-82
2022/01/10 07:01:08;;;;;;;;;;;;;;;1.12;100.00;97820.44;1633644;86;24496;-88
2022/01/10 07:03:37;;;;;;;;;;;;;;;1.09;100.00;97830.88;1633944;87;20251;-88
2022/01/10 07:06:03;;;;;;;;;;;;;;;1.10;100.00;97832.53;1633933;87;24764;-83
2022/01/10 07:08:29;;;;;;;;;;;;;;;1.03;100.00;97841.44;1634531;85;21996;-88
2022/01/10 07:10:55;;;;;;;;;;;;;;;1.00;100.00;97844.96;1635214;86;25986;-89
2022/01/10 07:13:23;;;;;;;;;;;;;;;1.04;100.00;97846.95;1634126;86;24385;-88
2022/01/10 07:15:49;;;;;;;;;;;;;;;1.09;100.00;97860.03;1633426;86;20242;-83
2022/01/10 07:18:15;;;;;;;;;;;;;;;1.08;100.00;97862.25;1634419;86;24898;-88
2022/01/10 07:20:41;;;;;;;;;;;;;;;1.09;100.00;97867.77;1632522;86;21843;-82
2022/01/10 07:23:07;;;;;;;;;;;;;;;1.10;100.00;97868.16;1634844;85;21145;-84
2022/01/10 07:25:35;;;;;;;;;;;;;;;1.06;100.00;97869.64;1642065;85;23935;-87
2022/01/10 07:28:01;;;;;;;;;;;;;;;0.92;100.00;97875.81;1632223;88;20301;-88
2022/01/10 07:30:27;;;;;;;;;;;;;;;0.69;100.00;97884.45;1631854;85;24480;-87
2022/01/10 07:32:53;;;;;;;;;;;;;;;0.53;100.00;97889.80;1655445;85;22093;-83
2022/01/10 07:35:19;;;;;;;;;;;;;;;0.38;100.00;97895.91;1648402;85;26105;-87
2022/01/10 07:37:45;;;;;;;;;;;;;;;0.27;100.00;97889.03;1648389;85;24382;-82
2022/01/10 07:40:12;;;;;;;;;;;;;;;0.21;100.00;97896.17;1650137;85;20290;-88
2022/01/10 07:42:45;;;;;;;;;;;;;;;0.15;100.00;97902.83;1648519;87;24804;-87
2022/01/10 07:45:11;;;;;;;;;;;;;;;0.11;100.00;97904.66;1647080;85;22079;-87
2022/01/10 07:47:37;;;;;;;;;;;;;;;0.08;100.00;97911.66;1648656;85;25979;-86
2022/01/10 07:50:06;;;;;;;;;;;;;;;0.08;99.99;97916.80;1647983;87;25173;-84
2022/01/10 07:52:34;;;;;;;;;;;;;;;0.10;100.00;97919.72;1620352;87;20182;-82
2022/01/10 07:55:00;;;;;;;;;;;;;;;0.14;100.00;97928.16;1649546;85;24744;-82
2022/01/10 07:57:26;;;;;;;;;;;;;;;0.15;100.00;97928.55;1648686;85;22005;-83
2022/01/10 07:59:52;;;;;;;;;;;;;;;0.20;100.00;97939.52;1647421;87;25958;-83
2022/01/10 08:02:20;;;;;;;;;;;;;;;0.20;100.00;97945.50;1650248;85;24360;-82
2022/01/10 08:04:47;;;;;;;;;;;;;;;0.16;100.00;97949.53;1647939;85;20521;-82
2022/01/10 08:07:13;;;;;;;;;;;;;;;0.08;100.00;97949.80;1648513;87;24730;-82
2022/01/10 08:09:39;;;;;;;;;;;;;;;0.06;100.00;97952.02;1648066;85;22056;-82
2022/01/10 08:12:06;;;;;;;;;;;;;;;0.03;100.00;97957.28;1649496;85;25988;-82
2022/01/10 08:14:32;;;;;;;;;;;;;;;-0.01;100.00;97962.55;1648603;85;24485;-82
2022/01/10 08:16:59;;;;;;;;;;;;;;;-0.02;100.00;97961.31;1648242;87;20490;-82
2022/01/10 08:19:27;;;;;;;;;;;;;;;-0.03;100.00;97965.61;1650104;85;24759;-82
2022/01/10 08:21:58;;;;;;;;;;;;;;;-0.06;100.00;97971.31;1648422;85;22008;-82
2022/01/10 08:24:22;;;;;;;;;;;;;;;-0.06;100.00;97973.45;1649309;85;26912;-82
2022/01/10 08:26:49;;;;;;;;;;;;;;;-0.01;100.00;97978.42;1649557;85;24518;-82
2022/01/10 08:29:15;;;;;;;;;;;;;;;0.05;100.00;97983.36;1643091;85;20284;-88
2022/01/10 08:31:41;;;;;;;;;;;;;;;0.11;100.00;97987.45;1635643;86;24839;-89
2022/01/10 08:34:07;;;;;;;;;;;;;;;0.13;100.00;97983.91;1633279;86;21945;-88
2022/01/10 08:36:33;;;;;;;;;;;;;;;0.16;100.00;97992.82;1632448;86;26277;-88
2022/01/10 08:39:00;;;;;;;;;;;;;;;0.16;100.00;97995.84;1631295;86;25312;-84
2022/01/10 08:41:26;;;;;;;;;;;;;;;0.08;100.00;97996.09;1632681;86;20470;-84
2022/01/10 08:43:52;;;;;;;;;;;;;;;0.03;100.00;98004.87;1632043;86;24763;-84
2022/01/10 08:46:18;;;;;;;;;;;;;;;-0.05;100.00;98011.55;1629436;85;23229;-84
2022/01/10 08:48:44;;;;;;;;;;;;;;;-0.10;100.00;98016.86;1631171;86;21081;-83
2022/01/10 08:51:10;;;;;;;;;;;;;;;-0.17;100.00;98014.56;1635051;84;20349;-83
2022/01/10 08:53:36;;;;;;;;;;;;;;;-0.22;99.89;98022.88;1638314;85;20226;-83
2022/01/10 08:56:03;;;;;;;;;;;;;;;-0.26;99.83;98031.12;1637567;85;24815;-83
2022/01/10 08:58:32;;;;;;;;;;;;;;;-0.31;99.73;98033.00;1634625;86;21930;-82
2022/01/10 09:00:57;;;;;;;;;;;;;;;-0.36;99.68;98033.60;1636923;86;26718;-82
2022/01/10 09:03:24;;;;;;;;;;;;;;;-0.40;99.60;98044.03;1632759;86;24518;-87
2022/01/10 09:05:50;;;;;;;;;;;;;;;-0.45;99.55;98046.77;1636710;85;20485;-87
2022/01/10 09:08:16;;;;;;;;;;;;;;;-0.51;99.51;98058.08;1636711;86;24714;-87
2022/01/10 09:10:42;;;;;;;;;;;;;;;-0.58;99.44;98055.73;1635257;86;22009;-87
2022/01/10 09:13:09;;;;;;;;;;;;;;;-0.65;99.37;98053.80;1635634;86;25955;-87
2022/01/10 09:15:38;;;;;;;;;;;;;;;-0.69;99.30;98054.79;1633409;86;24452;-86
2022/01/10 09:18:04;;;;;;;;;;;;;;;-0.73;99.22;98058.34;1635465;86;20215;-89
2022/01/10 09:20:31;;;;;;;;;;;;;;;-0.74;99.20;98069.51;1634480;86;24788;-87
2022/01/10 09:22:56;;;;;;;;;;;;;;;-0.75;99.18;98070.39;1629869;87;22030;-87
2022/01/10 09:25:22;;;;;;;;;;;;;;;-0.77;99.16;98068.33;1634895;86;20940;-87
2022/01/10 09:27:48;;;;;;;;;;;;;;;-0.77;99.17;98063.63;1633706;86;20360;-88
2022/01/10 09:30:15;;;;;;;;;;;;;;;-0.78;99.15;98067.09;1648183;85;20569;-89
2022/01/10 09:32:41;;;;;;;;;;;;;;;-0.83;99.09;98074.09;1650810;86;24835;-88
2022/01/10 09:35:08;;;;;;;;;;;;;;;-0.88;99.02;98075.52;1650330;85;21945;-88
2022/01/10 09:37:34;;;;;;;;;;;;;;;-0.91;98.94;98072.58;1648790;85;26061;-84
2022/01/10 09:40:00;;;;;;;;;;;;;;;-0.90;98.89;98074.71;1647455;87;24498;-82
2022/01/10 09:42:27;;;;;;;;;;;;;;;-0.87;98.88;98072.04;1648259;87;20231;-87
2022/01/10 09:44:52;;;;;;;;;;;;;;;-0.86;98.89;98080.15;1648459;87;24833;-82
2022/01/10 09:47:19;;;;;;;;;;;;;;;-0.81;98.93;98082.13;1647955;86;22013;-83
2022/01/10 09:49:45;;;;;;;;;;;;;;;-0.77;98.98;98081.17;1646270;87;25962;-83
2022/01/10 09:52:15;;;;;;;;;;;;;;;-0.75;99.01;98083.23;1647668;86;24393;-87
2022/01/10 09:54:46;;;;;;;;;;;;;;;-0.72;99.04;98084.88;1647082;87;20290;-82
2022/01/10 09:57:13;;;;;;;;;;;;;;;-0.70;99.04;98088.23;1648028;86;24796;-83
2022/01/10 09:59:40;;;;;;;;;;;;;;;-0.66;99.08;98091.12;1648327;87;22679;-82
2022/01/10 10:02:06;;;;;;;;;;;;;;;-0.66;99.08;98080.41;1632712;86;26888;-82
2022/01/10 10:04:36;;;;;;;;;;;;;;;-0.58;99.14;98078.86;1653826;85;20389;-83
2022/01/10 10:07:02;;;;;;;;;;;;;;;-0.55;99.17;98086.50;1650834;85;20207;-83
2022/01/10 10:09:30;;;;;;;;;;;;;;;-0.54;99.19;98092.00;1648175;87;24979;-87
2022/01/10 10:11:56;;;;;;;;;;;;;;;-0.54;99.15;98090.28;1648557;87;21958;-82
2022/01/10 10:14:22;;;;;;;;;;;;;;;-0.55;99.10;98089.91;1648602;87;20982;-82
2022/01/10 10:16:50;;;;;;;;;;;;;;;-0.53;99.06;98091.97;1649079;86;25033;-88
2022/01/10 10:19:21;;;;;;;;;;;;;;;-0.48;99.03;98096.52;1645848;87;20223;-82
2022/01/10 10:21:48;;;;;;;;;;;;;;;-0.46;99.00;98105.03;1648526;87;24741;-82
2022/01/10 10:24:14;;;;;;;;;;;;;;;-0.45;98.98;98099.02;1648402;85;21935;-83
2022/01/10 10:26:41;;;;;;;;;;;;;;;-0.40;98.95;98105.73;1629127;87;26228;-88
2022/01/10 10:29:07;;;;;;;;;;;;;;;-0.36;98.95;98107.30;1648657;87;24396;-87
2022/01/10 10:31:34;;;;;;;;;;;;;;;-0.35;98.92;98115.42;1649094;85;20223;-87
2022/01/10 10:34:02;;;;;;;;;;;;;;;-0.32;98.89;98121.73;1647838;87;25479;-87
2022/01/10 10:36:33;;;;;;;;;;;;;;;-0.31;98.85;98126.00;1646596;87;22024;-87
2022/01/10 10:39:00;;;;;;;;;;;;;;;-0.30;98.78;98123.83;1629302;87;25914;-87
2022/01/10 10:41:26;;;;;;;;;;;;;;;-0.33;98.69;98135.50;1646768;87;24458;-83
2022/01/10 10:43:54;;;;;;;;;;;;;;;-0.33;98.60;98136.79;1645699;87;20242;-83
2022/01/10 10:46:25;;;;;;;;;;;;;;;-0.30;98.55;98140.09;1647423;87;24929;-83
2022/01/10 10:48:50;;;;;;;;;;;;;;;-0.26;98.53;98137.81;1648171;87;22049;-83
2022/01/10 10:51:16;;;;;;;;;;;;;;;-0.27;98.47;98144.31;1648011;85;26659;-83
2022/01/10 10:53:42;;;;;;;;;;;;;;;-0.28;98.36;98140.90;1647158;87;24480;-88
2022/01/10 10:56:11;;;;;;;;;;;;;;;-0.29;98.27;98148.66;1648475;87;20243;-83
2022/01/10 10:58:39;;;;;;;;;;;;;;;-0.30;98.19;98148.25;1650131;85;24857;-85
2022/01/10 11:01:06;;;;;;;;;;;;;;;-0.28;98.13;98161.47;1645900;87;22020;-88
2022/01/10 11:03:36;;;;;;;;;;;;;;;-0.27;98.08;98164.88;1649201;85;26045;-84
2022/01/10 11:06:04;;;;;;;;;;;;;;;-0.26;98.01;98169.95;1648085;87;24612;-88
2022/01/10 11:08:31;;;;;;;;;;;;;;;-0.33;97.87;98171.50;1648386;87;20580;-88
2022/01/10 11:10:59;;;;;;;;;;;;;;;-0.44;97.69;98175.20;1648397;87;24884;-88
2022/01/10 11:13:28;;;;;;;;;;;;;;;-0.48;97.55;98179.20;1647897;87;22052;-82
2022/01/10 11:15:58;;;;;;;;;;;;;;;-0.50;97.40;98186.98;1627650;87;26627;-87
2022/01/10 11:18:27;;;;;;;;;;;;;;;-0.48;97.32;98191.61;1647646;87;24420;-87
2022/01/10 11:20:55;;;;;;;;;;;;;;;-0.47;97.30;98192.46;1648220;87;20357;-87
2022/01/10 11:23:26;;;;;;;;;;;;;;;-0.55;97.21;98189.29;1646989;87;25021;-86
2022/01/10 11:25:50;;;;;;;;;;;;;;;-0.58;97.12;98196.63;1648261;87;22049;-88
2022/01/10 11:28:17;;;;;;;;;;;;;;;-0.67;97.00;98202.05;1648185;85;21781;-87
2022/01/10 11:30:45;;;;;;;;;;;;;;;-0.70;96.86;98200.83;1640908;87;25144;-83
2022/01/10 11:33:15;;;;;;;;;;;;;;;-0.75;96.72;98198.00;1633846;86;20234;-83
2022/01/10 11:35:43;;;;;;;;;;;;;;;-0.78;96.61;98203.23;1633966;87;25557;-87
2022/01/10 11:38:29;;;;;;;;;;;;;;;-0.79;96.51;98208.81;1635954;86;22014;-86
2022/01/10 11:41:08;;;;;;;;;;;;;;;-0.77;96.47;98210.06;1630974;87;26641;-87
2022/01/10 11:43:37;;;;;;;;;;;;;;;-0.79;96.46;98210.09;1632624;88;24595;-86
2022/01/10 11:46:10;;;;;;;;;;;;;;;-0.87;96.38;98220.57;1631547;88;20379;-87
2022/01/10 11:48:43;;;;;;;;;;;;;;;-1.00;96.23;98219.69;1634202;86;24934;-87
2022/01/10 11:51:14;;;;;;;;;;;;;;;-1.09;96.09;98222.52;1634201;86;22082;-87
2022/01/10 11:53:41;;;;;;;;;;;;;;;-1.15;95.96;98235.50;1634573;86;26104;-87
2022/01/10 11:56:09;;;;;;;;;;;;;;;-1.29;95.79;98235.41;1633047;85;24414;-87
2022/01/10 11:58:35;;;;;;;;;;;;;;;-1.40;95.64;98248.95;1639377;86;20283;-87
2022/01/10 12:01:06;;;;;;;;;;;;;;;-1.47;95.49;98238.44;1631289;87;20253;-87
2022/01/10 12:03:32;;;;;;;;;;;;;;;-1.54;95.39;98243.78;1638466;87;22159;-87
2022/01/10 12:05:58;;;;;;;;;;;;;;;-1.63;95.29;98249.95;1624342;86;26169;-87
2022/01/10 12:08:24;;;;;;;;;;;;;;;-1.64;95.27;98253.43;1639681;85;20396;-87
2022/01/10 12:10:52;;;;;;;;;;;;;;;-1.69;95.22;98247.10;1630110;86;20581;-84
2022/01/10 12:13:26;;;;;;;;;;;;;;;-1.67;95.27;98262.47;1632231;88;24854;-83
2022/01/10 12:15:46;;;;;;;;;;;;;;;-1.68;95.33;98258.20;1634139;87;22047;-84
2022/01/10 12:18:13;;;;;;;;;;;;;;;-1.67;95.42;98261.18;1634263;86;26652;-84
2022/01/10 12:20:39;;;;;;;;;;;;;;;-1.72;95.45;98261.30;1633912;87;24523;-83
2022/01/10 12:23:05;;;;;;;;;;;;;;;-1.77;95.49;98266.98;1633469;87;20328;-84
2022/01/10 12:25:31;;;;;;;;;;;;;;;-1.83;95.52;98265.83;1632263;87;24780;-83
2022/01/10 12:28:00;;;;;;;;;;;;;;;-1.92;95.52;98270.34;1633916;87;20225;-84
2022/01/10 12:30:27;;;;;;;;;;;;;;;-1.99;95.54;98279.03;1632376;85;26180;-83
2022/01/10 12:32:53;;;;;;;;;;;;;;;-2.03;95.58;98285.97;1625493;86;24533;-83
2022/01/10 12:35:20;;;;;;;;;;;;;;;-2.03;95.67;98290.25;1623845;87;20535;-83
2022/01/10 12:37:46;;;;;;;;;;;;;;;-2.02;95.81;98295.78;1625006;88;24738;-83
2022/01/10 12:40:14;;;;;;;;;;;;;;;-2.08;95.96;98297.20;1624803;88;21957;-83
2022/01/10 12:42:40;;;;;;;;;;;;;;;-2.07;96.12;98310.42;1624723;86;26915;-83
2022/01/10 12:45:06;;;;;;;;;;;;;;;-2.14;96.24;98318.24;1624648;88;24389;-84
2022/01/10 12:47:36;;;;;;;;;;;;;;;-2.20;96.38;98309.83;1623713;87;20351;-83
2022/01/10 12:50:01;;;;;;;;;;;;;;;-2.26;96.51;98320.20;1624976;87;24848;-83
2022/01/10 12:52:27;;;;;;;;;;;;;;;-2.29;96.70;98323.66;1624713;86;22731;-82
2022/01/10 12:54:53;;;;;;;;;;;;;;;-2.30;96.88;98328.41;1624880;86;26114;-83
2022/01/10 12:57:19;;;;;;;;;;;;;;;-2.29;97.09;98329.25;1625054;88;20852;-83